Yukon, Unorganized, Yukon Territory

9:22 AM PDT on March 27, 2015 (GMT -0700)
Dawson | | Change Station
CLOSE
Current Station
Airport
Location: Dawson,
Elevation: 1214 ft
Nearby Weather Stations

Elev 1214 ft 64.04 °N, 139.13 °W | Updated 22 minutes ago

Mostly Cloudy
Mostly Cloudy
18 °F
Feels Like 18 °F
N
2
Wind Variable Wind from ENE

Today
High -- | Low -- °F
--% Chance of Precip.
Yesterday
High -- | Low -- °F
Precip. -- in
7:52 AM 8:52 PM
First Quarter, 54% visible
Pressure 29.66 in
Visibility 20.0 miles
Clouds Scattered Clouds 3000 ft
Mostly Cloudy 10000 ft
Mostly Cloudy 20000 ft
Dew Point 16 °F
Humidity 93%
Rainfall 0.00 in
Snow Depth Not available.
UV 0 out of 12
Pollen Not available.
Air Quality Not available.
Flu Activity Not available.
METAR CYDA 271600Z 07002KT 20SM SCT030 BKN100 BKN200 M08/M09 A2958 RMK SC3AC2CI2 SLP043

More Conditions Fewer Conditions

Pressure 29.66 in
Visibility 20.0 miles
Clouds Scattered Clouds 3000 ft
Mostly Cloudy 10000 ft
Mostly Cloudy 20000 ft
Dew Point 16 °F
Humidity 93%
Rainfall 0.00 in
Snow Depth Not available.
UV 0 out of 12
Pollen Not available.
Air Quality Not available.
Flu Activity Not available.
METAR CYDA 271600Z 07002KT 20SM SCT030 BKN100 BKN200 M08/M09 A2958 RMK SC3AC2CI2 SLP043

More Conditions Fewer Conditions

10-Day Weather Forecast

Almanac

Astronomy

Mar. 27, 2015 Rise Set
Actual Time
Civil Twilight
Nautical Twilight
Astronomical Twilight
Moon
Length of Visible Light
Length of Day
Tomorrow will be .
, % of the Moon is Illuminated

Today's Extremes

Country Highs Country Lows

Community

WunderPhotos

Upload Photos

1,808,770 photos uploaded!

WunderBlogs® & News

Nearby

Air Quality

  Air Quality AQ Index Pollutant
Not available.

Snow Depth

Station Depth Elevation

Earthquake Activity

City Distance Mag. Time & Date
Minimum magnitude displayed is 2.5.

Coastal Water Temperatures

Place Temperature

Stations

Nearby Weather Stations

Station Location Temp. Windchill Dew Point Humidity Wind Precip. Elev Updated Type